CDT,Max TemperatureF,Mean TemperatureF,Min TemperatureF,Max Dew PointF,MeanDew PointF,Min DewpointF,Max Humidity, Mean Humidity, Min Humidity, Max Sea Level PressureIn, Mean Sea Level PressureIn, Min Sea Level PressureIn, Max VisibilityMiles, Mean VisibilityMiles, Min VisibilityMiles, Max Wind SpeedMPH, Mean Wind SpeedMPH, Max Gust SpeedMPH,PrecipitationIn, CloudCover, Events, WindDirDegrees
2014-5-1,55,45,35,36,34,30,87,59,44,30.03,30.01,29.99,10,10,10,18,9,26,0.00,4,,270
2014-5-2,64,50,35,37,35,34,93,57,32,30.03,29.97,29.91,10,10,10,14,3,20,0.00,1,,238
2014-5-3,80,64,48,45,37,34,58,38,18,29.98,29.94,29.91,10,10,10,22,9,25,0.00,0,,214
2014-5-4,89,74,59,46,43,41,55,34,18,29.94,29.88,29.81,10,10,10,24,15,31,0.00,0,,200
2014-5-5,89,78,66,55,48,43,60,38,26,29.83,29.78,29.70,10,10,7,24,17,34,0.00,0,,200
2014-5-6,86,74,62,63,59,54,78,58,40,29.77,29.71,29.65,10,10,10,22,12,29,0.00,0,,175
2014-5-7,84,75,66,63,60,57,78,63,48,29.81,29.76,29.71,10,10,10,24,14,32,0.00,0,,180
2014-5-8,75,68,60,64,62,59,100,81,65,29.90,29.84,29.79,10,9,0,23,12,28,1.43,4,Rain-Thunderstorm,172
2014-5-9,73,66,59,61,60,55,100,85,61,29.93,29.88,29.82,10,9,5,10,4,,0.06,5,Rain-Thunderstorm,321
2014-5-10,82,68,55,64,60,54,100,74,48,29.93,29.87,29.79,10,10,7,17,8,23,0.00,1,,158
2014-5-11,82,73,64,68,65,63,100,76,58,29.87,29.82,29.75,10,10,7,23,12,29,0.00,3,,157
2014-5-12,82,68,53,70,64,52,100,85,61,30.03,29.87,29.77,10,9,2,22,13,37,1.92,6,Rain-Thunderstorm,201
2014-5-13,53,50,46,52,47,45,100,88,76,30.23,30.15,30.03,10,9,2,16,9,18,0.00,7,Rain,328
2014-5-14,51,46,42,46,43,39,93,86,62,30.24,30.19,30.15,10,10,5,12,4,,0.14,5,Rain,357
2014-5-15,59,49,39,45,37,30,93,66,34,30.15,30.13,30.11,10,10,10,18,7,24,0.00,2,,261
2014-5-16,60,48,35,45,37,32,100,68,38,30.15,30.11,30.07,10,10,7,13,2,16,0.03,4,Rain,1
2014-5-17,60,52,44,50,45,41,100,77,52,30.17,30.13,30.09,10,10,7,13,7,17,0.02,5,Rain,98
2014-5-18,69,58,46,55,51,46,100,80,60,30.20,30.13,30.05,10,10,7,15,8,20,0.00,2,,124
2014-5-19,78,66,55,61,56,54,100,69,42,30.06,29.95,29.85,10,10,7,26,15,34,0.00,1,,162
2014-5-20,82,73,64,64,61,59,83,67,45,29.94,29.91,29.88,10,10,10,24,17,31,0.00,0,,194
2014-5-21,80,73,66,68,65,63,88,74,65,30.08,30.00,29.93,10,10,10,22,13,28,0.00,1,,205
2014-5-22,82,72,62,66,63,61,100,74,51,30.15,30.09,30.04,10,10,10,14,5,16,0.00,2,,198
2014-5-23,80,70,60,68,62,59,94,75,48,30.14,30.10,30.05,10,10,4,9,3,,0.12,2,Rain,135
2014-5-24,78,71,64,70,65,63,100,87,65,30.11,30.06,30.00,10,9,4,15,6,24,0.53,5,Rain-Thunderstorm,105
2014-5-25,80,70,60,68,65,61,100,83,61,30.09,30.04,29.98,10,9,5,10,6,,0.00,1,Rain,149
2014-5-26,78,71,64,68,65,61,100,87,69,30.08,30.05,30.02,10,10,4,14,6,24,0.39,4,Rain-Thunderstorm,182
2014-5-27,77,70,62,66,64,63,100,91,61,30.04,29.98,29.93,10,10,3,12,5,17,0.25,5,Rain,135
2014-5-28,77,68,60,68,63,61,100,86,61,30.01,29.96,29.93,10,9,2,8,3,,0.00,4,Rain,105
2014-5-29,78,70,62,68,65,63,100,85,61,29.99,29.95,29.91,10,9,3,15,4,18,0.05,3,Rain,84
2014-5-30,78,70,62,68,65,63,100,86,65,30.03,30.00,29.97,10,10,5,15,7,21,0.00,5,Rain-Thunderstorm,93
2014-5-31,80,72,64,70,67,64,100,86,61,30.07,30.03,29.98,10,10,5,14,7,20,0.00,3,,116